Ingolstadt Manching Airport ETSI

Flugplatz Daten

Name: Ingolstadt Manching Airport

Ident: ETSI

Lat: 48,71569824

Long: 11,5340004

Platzhöhe: 1202 ft

IataCode: IGS

City: Manching

Metar

2022/08/13 17:20
ETSI 131720Z AUTO 10003KT 4500 // ////// 26/05 Q1014 ///

Taf

2022/05/09 14:27
TAF ETSI 091315Z 0914/1013 CNL 1315
Gewünschte Webcam nicht vorhanden? Dann fügen Sie eine hinzu. Sie wird dann so schnell wie möglich freigeschaltet
Url: Title: